createdAt,value
2019-03-31T00:01:25.159Z,98879.88
2019-03-31T00:03:56.386Z,98879.67
2019-03-31T00:06:27.574Z,98875.22
2019-03-31T00:08:58.642Z,98873.41
2019-03-31T00:11:29.890Z,98875.84
2019-03-31T00:14:01.041Z,98872.05
2019-03-31T00:16:32.171Z,98874.78
2019-03-31T00:19:03.399Z,98869.00
2019-03-31T00:21:34.169Z,98875.82
2019-03-31T00:24:05.295Z,98882.83
2019-03-31T00:26:37.140Z,98885.38
2019-03-31T00:29:07.954Z,98883.75
2019-03-31T00:31:39.451Z,98887.11
2019-03-31T00:34:11.246Z,98882.84
2019-03-31T00:36:42.258Z,98880.07
2019-03-31T00:39:13.805Z,98883.87
2019-03-31T00:41:45.063Z,98889.73
2019-03-31T00:44:15.842Z,98885.71
2019-03-31T00:46:46.625Z,98880.41
2019-03-31T00:49:17.368Z,98880.06
2019-03-31T00:51:49.103Z,98879.28
2019-03-31T00:54:19.947Z,98886.72
2019-03-31T00:56:52.009Z,98883.56
2019-03-31T00:59:22.832Z,98883.56
2019-03-31T01:02:03.431Z,98884.59
2019-03-31T01:04:36.626Z,98887.62
2019-03-31T01:07:08.725Z,98889.31
2019-03-31T01:09:39.926Z,98888.82
2019-03-31T01:12:11.689Z,98877.97
2019-03-31T01:14:43.775Z,98884.30
2019-03-31T01:17:18.562Z,98882.19
2019-03-31T01:19:48.083Z,98883.11
2019-03-31T01:22:18.937Z,98878.28
2019-03-31T01:24:50.919Z,98880.63
2019-03-31T01:27:22.010Z,98880.33
2019-03-31T01:29:53.306Z,98879.66
2019-03-31T01:32:24.318Z,98880.98
2019-03-31T01:34:55.355Z,98885.88
2019-03-31T01:37:26.083Z,98887.78
2019-03-31T01:39:57.028Z,98896.83
2019-03-31T01:42:27.772Z,98897.06
2019-03-31T01:44:58.515Z,98891.16
2019-03-31T01:47:29.647Z,98895.30
2019-03-31T01:50:00.420Z,98891.56
2019-03-31T01:52:31.210Z,98902.27
2019-03-31T01:55:01.980Z,98898.63
2019-03-31T01:57:32.693Z,98892.72
2019-03-31T02:00:05.239Z,98899.81
2019-03-31T02:02:36.172Z,98898.25
2019-03-31T02:05:07.428Z,98897.70
2019-03-31T02:07:38.275Z,98898.48
2019-03-31T02:10:09.013Z,98896.64
2019-03-31T02:12:39.742Z,98894.30
2019-03-31T02:15:10.500Z,98889.71
2019-03-31T02:19:38.668Z,98880.11
2019-03-31T02:22:09.756Z,98883.63
2019-03-31T02:24:40.558Z,98889.09
2019-03-31T02:27:11.702Z,98879.58
2019-03-31T02:29:43.523Z,98887.77
2019-03-31T02:32:23.194Z,98884.09
2019-03-31T02:34:46.775Z,98876.93
2019-03-31T02:37:17.553Z,98881.66
2019-03-31T02:39:48.655Z,98880.73
2019-03-31T02:42:19.435Z,98875.30
2019-03-31T02:44:50.229Z,98870.23
2019-03-31T02:47:21.367Z,98878.17
2019-03-31T02:49:52.102Z,98871.89
2019-03-31T02:52:22.989Z,98876.94
2019-03-31T02:54:53.720Z,98874.45
2019-03-31T02:57:24.957Z,98878.09
2019-03-31T02:59:56.448Z,98873.66
2019-03-31T03:02:41.313Z,98871.66
2019-03-31T03:05:18.422Z,98872.80
2019-03-31T03:07:39.609Z,98866.88
2019-03-31T03:10:10.796Z,98864.19
2019-03-31T03:12:45.325Z,98865.42
2019-03-31T03:15:27.724Z,98871.00
2019-03-31T03:17:58.523Z,98859.57
2019-03-31T03:20:29.601Z,98863.33
2019-03-31T03:23:00.377Z,98862.70
2019-03-31T03:25:31.165Z,98862.55
2019-03-31T03:28:01.943Z,98857.16
2019-03-31T03:30:33.125Z,98860.97
2019-03-31T03:33:16.478Z,98858.86
2019-03-31T03:35:37.668Z,98853.95
2019-03-31T03:38:08.585Z,98858.02
2019-03-31T03:40:39.356Z,98860.81
2019-03-31T03:43:10.167Z,98858.39
2019-03-31T03:45:41.048Z,98856.53
2019-03-31T03:48:29.945Z,98852.63
2019-03-31T03:51:00.718Z,98851.67
2019-03-31T03:53:31.498Z,98850.36
2019-03-31T03:56:02.377Z,98853.09
2019-03-31T03:58:33.529Z,98854.80
2019-03-31T04:01:11.546Z,98855.48
2019-03-31T04:03:42.315Z,98847.61
2019-03-31T04:06:13.110Z,98848.93
2019-03-31T04:08:43.900Z,98854.28
2019-03-31T04:11:25.608Z,98857.61
2019-03-31T04:13:56.641Z,98852.16
2019-03-31T04:16:27.729Z,98861.23
2019-03-31T04:18:58.637Z,98850.61
2019-03-31T04:21:30.163Z,98851.29
2019-03-31T04:24:01.256Z,98849.23
2019-03-31T04:26:31.996Z,98850.18
2019-03-31T04:29:02.766Z,98844.27
2019-03-31T04:31:34.049Z,98846.70
2019-03-31T04:34:04.857Z,98850.82
2019-03-31T04:36:36.767Z,98847.08
2019-03-31T04:39:08.874Z,98843.80
2019-03-31T04:41:46.091Z,98851.20
2019-03-31T04:44:16.795Z,98846.22
2019-03-31T04:46:47.777Z,98846.75
2019-03-31T04:49:19.867Z,98852.71
2019-03-31T04:51:52.712Z,98847.17
2019-03-31T04:54:24.451Z,98846.94
2019-03-31T04:56:55.546Z,98851.58
2019-03-31T04:59:26.757Z,98848.67
2019-03-31T05:01:57.526Z,98852.52
2019-03-31T05:04:28.329Z,98856.74
2019-03-31T05:06:59.103Z,98856.13
2019-03-31T05:09:30.237Z,98856.59
2019-03-31T05:12:01.326Z,98864.52
2019-03-31T05:14:32.073Z,98859.77
2019-03-31T05:17:03.157Z,98857.54
2019-03-31T05:19:34.568Z,98865.52
2019-03-31T05:22:05.407Z,98861.77
2019-03-31T05:24:36.489Z,98867.05
2019-03-31T05:27:07.387Z,98861.64
2019-03-31T05:29:38.128Z,98870.83
2019-03-31T05:32:09.208Z,98871.15
2019-03-31T05:34:39.993Z,98871.36
2019-03-31T05:37:10.795Z,98871.89
2019-03-31T05:39:42.291Z,98873.53
2019-03-31T05:42:13.210Z,98877.66
2019-03-31T05:44:43.955Z,98883.44
2019-03-31T05:47:14.733Z,98879.36
2019-03-31T05:49:45.447Z,98885.66
2019-03-31T05:52:16.514Z,98890.38
2019-03-31T05:54:47.387Z,98880.59
2019-03-31T05:57:18.215Z,98891.97
2019-03-31T05:59:49.644Z,98891.91
2019-03-31T06:02:20.819Z,98892.55
2019-03-31T06:04:51.953Z,98884.77
2019-03-31T06:07:22.774Z,98885.94
2019-03-31T06:09:53.907Z,98882.22
2019-03-31T06:12:24.643Z,98886.50
2019-03-31T06:14:55.433Z,98884.33
2019-03-31T06:17:26.688Z,98876.47
2019-03-31T06:19:57.528Z,98878.98
2019-03-31T06:22:29.047Z,98880.12
2019-03-31T06:25:01.311Z,98884.78
2019-03-31T06:27:32.129Z,98883.45
2019-03-31T06:30:02.839Z,98887.08
2019-03-31T06:32:33.986Z,98886.13
2019-03-31T06:35:04.911Z,98879.64
2019-03-31T06:37:40.766Z,98883.34
2019-03-31T06:40:11.603Z,98881.53
2019-03-31T06:42:42.385Z,98884.67
2019-03-31T06:45:13.237Z,98879.79
2019-03-31T06:47:44.050Z,98875.86
2019-03-31T06:50:14.932Z,98874.30
2019-03-31T06:52:46.846Z,98878.63
2019-03-31T06:55:18.086Z,98885.34
2019-03-31T06:57:48.836Z,98882.44
2019-03-31T07:00:20.305Z,98879.59
2019-03-31T07:02:51.409Z,98878.19
2019-03-31T07:05:22.111Z,98875.30
2019-03-31T07:07:53.922Z,98877.25
2019-03-31T07:10:24.689Z,98880.31
2019-03-31T07:12:55.442Z,98882.41
2019-03-31T07:15:26.184Z,98878.70
2019-03-31T07:17:57.300Z,98880.13
2019-03-31T07:20:28.398Z,98875.85
2019-03-31T07:22:59.231Z,98877.63
2019-03-31T07:25:30.153Z,98888.83
2019-03-31T07:28:01.392Z,98879.28
2019-03-31T07:30:32.458Z,98877.31
2019-03-31T07:33:03.279Z,98872.89
2019-03-31T07:35:34.203Z,98877.59
2019-03-31T07:38:06.127Z,98868.62
2019-03-31T07:40:37.641Z,98869.53
2019-03-31T07:43:08.885Z,98867.50
2019-03-31T07:45:40.246Z,98865.98
2019-03-31T07:48:11.319Z,98870.78
2019-03-31T07:50:42.194Z,98867.03
2019-03-31T07:53:12.962Z,98865.32
2019-03-31T07:55:43.661Z,98861.55
2019-03-31T07:58:14.841Z,98859.77
2019-03-31T08:00:46.829Z,98862.56
2019-03-31T08:03:18.961Z,98855.59
2019-03-31T08:05:50.122Z,98857.94
2019-03-31T08:08:20.997Z,98855.77
2019-03-31T08:10:52.229Z,98862.30
2019-03-31T08:13:23.209Z,98859.64
2019-03-31T08:15:55.971Z,98860.14
2019-03-31T08:18:27.478Z,98855.53
2019-03-31T08:20:58.745Z,98860.91
2019-03-31T08:23:29.565Z,98861.99
2019-03-31T08:26:00.600Z,98865.64
2019-03-31T08:28:31.647Z,98862.48
2019-03-31T08:31:02.817Z,98866.97
2019-03-31T08:33:33.867Z,98857.34
2019-03-31T08:36:04.626Z,98854.17
2019-03-31T08:38:35.797Z,98848.66
2019-03-31T08:41:06.511Z,98850.98
2019-03-31T08:43:38.070Z,98854.23
2019-03-31T08:46:08.918Z,98856.16
2019-03-31T08:48:39.673Z,98854.41
2019-03-31T08:51:10.538Z,98850.33
2019-03-31T08:53:41.762Z,98846.00
2019-03-31T08:56:12.906Z,98848.52
2019-03-31T08:58:43.941Z,98848.77
2019-03-31T09:01:17.360Z,98842.69
2019-03-31T09:03:48.182Z,98841.97
2019-03-31T09:06:19.014Z,98838.03
2019-03-31T09:08:49.858Z,98832.73
2019-03-31T09:11:20.635Z,98838.08
2019-03-31T09:13:51.747Z,98835.52
2019-03-31T09:16:23.626Z,98831.83
2019-03-31T09:18:55.643Z,98835.53
2019-03-31T09:21:26.789Z,98839.47
2019-03-31T09:23:57.527Z,98834.37
2019-03-31T09:26:28.868Z,98833.57
2019-03-31T09:28:59.648Z,98833.48
2019-03-31T09:31:30.387Z,98832.12
2019-03-31T09:34:02.017Z,98824.66
2019-03-31T09:36:33.241Z,98820.89
2019-03-31T09:39:06.666Z,98817.17
2019-03-31T09:41:37.914Z,98826.89
2019-03-31T09:44:08.739Z,98825.42
2019-03-31T09:46:39.531Z,98816.89
2019-03-31T09:49:10.303Z,98812.87
2019-03-31T09:51:41.439Z,98805.36
2019-03-31T09:54:12.210Z,98810.59
2019-03-31T09:56:42.947Z,98807.08
2019-03-31T09:59:14.255Z,98808.66
2019-03-31T10:01:45.655Z,98812.66
2019-03-31T10:04:16.492Z,98799.58
2019-03-31T10:06:47.359Z,98800.19
2019-03-31T10:09:18.426Z,98797.39
2019-03-31T10:11:49.212Z,98798.66
2019-03-31T10:14:21.058Z,98785.50
2019-03-31T10:16:51.815Z,98787.66
2019-03-31T10:19:22.607Z,98779.20
2019-03-31T10:21:54.504Z,98777.99
2019-03-31T10:24:26.917Z,98771.31
2019-03-31T10:26:57.682Z,98775.70
2019-03-31T10:29:28.510Z,98773.00
2019-03-31T10:31:59.979Z,98773.52
2019-03-31T10:34:30.813Z,98762.19
2019-03-31T10:37:02.502Z,98766.67
2019-03-31T10:39:34.821Z,98759.78
2019-03-31T10:42:05.640Z,98764.25
2019-03-31T10:44:36.401Z,98761.09
2019-03-31T10:47:11.675Z,98756.77
2019-03-31T10:49:42.520Z,98754.75
2019-03-31T10:52:13.395Z,98748.36
2019-03-31T10:54:44.982Z,98745.33
2019-03-31T10:57:15.698Z,98742.20
2019-03-31T10:59:46.779Z,98741.23
2019-03-31T11:02:17.608Z,98743.72
2019-03-31T11:04:48.714Z,98740.38
2019-03-31T11:07:19.452Z,98735.52
2019-03-31T11:09:51.007Z,98731.53
2019-03-31T11:12:22.150Z,98729.59
2019-03-31T11:14:53.294Z,98724.22
2019-03-31T11:17:24.120Z,98723.86
2019-03-31T11:19:54.894Z,98717.34
2019-03-31T11:22:30.196Z,98719.95
2019-03-31T11:25:03.364Z,98723.59
2019-03-31T11:27:34.371Z,98725.17
2019-03-31T11:30:06.168Z,98718.73
2019-03-31T11:32:37.470Z,98714.88
2019-03-31T11:35:09.578Z,98712.77
2019-03-31T11:37:40.409Z,98708.13
2019-03-31T11:40:11.960Z,98702.64
2019-03-31T11:42:43.107Z,98700.18
2019-03-31T11:45:14.758Z,98700.22
2019-03-31T11:47:45.844Z,98701.24
2019-03-31T11:50:17.119Z,98695.45
2019-03-31T11:52:48.236Z,98691.61
2019-03-31T11:55:19.080Z,98691.92
2019-03-31T11:57:49.856Z,98691.24
2019-03-31T12:00:21.359Z,98686.06
2019-03-31T12:02:52.776Z,98686.84
2019-03-31T12:05:24.621Z,98679.62
2019-03-31T12:07:56.389Z,98673.48
2019-03-31T12:10:27.479Z,98666.20
2019-03-31T12:12:59.362Z,98662.26
2019-03-31T12:15:30.170Z,98662.57
2019-03-31T12:18:01.287Z,98654.61
2019-03-31T12:20:32.490Z,98656.91
2019-03-31T12:23:03.413Z,98649.55
2019-03-31T12:25:34.647Z,98651.30
2019-03-31T12:28:05.509Z,98651.98
2019-03-31T12:30:36.227Z,98655.74
2019-03-31T12:33:06.980Z,98649.03
2019-03-31T12:35:38.050Z,98642.79
2019-03-31T12:38:08.899Z,98643.14
2019-03-31T12:40:40.371Z,98639.85
2019-03-31T12:43:11.138Z,98634.14
2019-03-31T12:45:43.573Z,98634.36
2019-03-31T12:48:14.659Z,98628.10
2019-03-31T12:50:45.429Z,98624.59
2019-03-31T12:53:16.711Z,98623.97
2019-03-31T12:55:59.415Z,98619.88
2019-03-31T12:58:20.306Z,98609.80
2019-03-31T13:00:51.681Z,98612.35
2019-03-31T13:03:22.791Z,98601.03
2019-03-31T13:05:53.612Z,98606.73
2019-03-31T13:08:25.495Z,98602.21
2019-03-31T13:10:56.312Z,98601.78
2019-03-31T13:13:27.105Z,98596.33
2019-03-31T13:15:58.217Z,98596.81
2019-03-31T13:18:30.109Z,98595.23
2019-03-31T13:21:01.064Z,98588.86
2019-03-31T13:23:31.987Z,98578.71
2019-03-31T13:26:02.710Z,98574.30
2019-03-31T13:28:35.262Z,98567.49
2019-03-31T13:31:06.327Z,98575.40
2019-03-31T13:33:37.200Z,98567.32
2019-03-31T13:36:08.055Z,98565.84
2019-03-31T13:38:38.981Z,98559.53
2019-03-31T13:41:10.255Z,98562.55
2019-03-31T13:43:41.073Z,98558.55
2019-03-31T13:46:12.617Z,98553.58
2019-03-31T13:48:43.553Z,98549.47
2019-03-31T13:51:14.325Z,98543.95
2019-03-31T13:53:45.073Z,98535.66
2019-03-31T13:56:17.752Z,98536.20
2019-03-31T13:58:52.361Z,98535.06
2019-03-31T14:01:22.846Z,98539.13
2019-03-31T14:03:53.755Z,98531.41
2019-03-31T14:06:25.320Z,98524.02
2019-03-31T14:08:56.646Z,98517.91
2019-03-31T14:11:27.765Z,98519.31
2019-03-31T14:13:58.710Z,98521.40
2019-03-31T14:16:29.800Z,98526.80
2019-03-31T14:19:00.965Z,98514.31
2019-03-31T14:21:31.803Z,98519.46
2019-03-31T14:24:03.034Z,98518.92
2019-03-31T14:26:33.967Z,98518.82
2019-03-31T14:29:05.098Z,98517.53
2019-03-31T14:31:36.138Z,98519.80
2019-03-31T14:34:07.240Z,98509.22
2019-03-31T14:36:38.103Z,98501.94
2019-03-31T14:39:11.001Z,98504.64
2019-03-31T14:41:42.512Z,98503.90
2019-03-31T14:44:13.318Z,98504.22
2019-03-31T14:46:44.122Z,98497.09
2019-03-31T14:49:14.864Z,98496.61
2019-03-31T14:51:46.119Z,98502.91
2019-03-31T14:54:16.965Z,98496.05
2019-03-31T14:56:47.853Z,98494.41
2019-03-31T14:59:18.780Z,98491.42
2019-03-31T15:01:50.409Z,98485.98
2019-03-31T15:04:21.707Z,98488.86
2019-03-31T15:06:52.772Z,98482.86
2019-03-31T15:09:23.606Z,98480.84
2019-03-31T15:11:54.649Z,98488.45
2019-03-31T15:14:25.979Z,98478.50
2019-03-31T15:16:57.037Z,98480.51
2019-03-31T15:19:29.294Z,98476.61
2019-03-31T15:22:01.156Z,98484.27
2019-03-31T15:24:31.999Z,98480.95
2019-03-31T15:27:03.902Z,98473.31
2019-03-31T15:29:34.685Z,98476.59
2019-03-31T15:32:05.857Z,98479.74
2019-03-31T15:34:37.408Z,98481.03
2019-03-31T15:37:08.166Z,98478.73
2019-03-31T15:39:39.157Z,98475.59
2019-03-31T15:42:10.412Z,98470.93
2019-03-31T15:44:41.210Z,98462.27
2019-03-31T15:47:16.488Z,98464.12
2019-03-31T15:49:47.260Z,98457.69
2019-03-31T15:52:18.381Z,98463.71
2019-03-31T15:54:49.153Z,98459.88
2019-03-31T15:57:20.260Z,98457.48
2019-03-31T15:59:54.151Z,98451.33
2019-03-31T16:02:26.511Z,98449.78
2019-03-31T16:04:57.251Z,98442.74
2019-03-31T16:07:28.320Z,98436.73
2019-03-31T16:09:58.952Z,98438.27
2019-03-31T16:12:29.211Z,98441.52
2019-03-31T16:14:59.512Z,98441.03
2019-03-31T16:17:29.776Z,98441.65
2019-03-31T16:20:00.487Z,98440.54
2019-03-31T16:22:30.863Z,98441.77
2019-03-31T16:25:02.243Z,98442.48
2019-03-31T16:27:32.537Z,98443.23
2019-03-31T16:30:03.128Z,98440.55
2019-03-31T16:32:33.855Z,98432.67
2019-03-31T16:35:04.228Z,98437.58
2019-03-31T16:37:34.434Z,98431.03
2019-03-31T16:40:06.344Z,98432.86
2019-03-31T16:42:37.171Z,98430.83
2019-03-31T16:45:08.289Z,98432.02
2019-03-31T16:47:38.538Z,98439.79
2019-03-31T16:50:09.033Z,98430.56
2019-03-31T16:52:39.240Z,98433.02
2019-03-31T16:55:09.957Z,98432.72
2019-03-31T16:57:40.135Z,98426.16
2019-03-31T17:00:11.166Z,98427.84
2019-03-31T17:02:41.920Z,98430.61
2019-03-31T17:05:21.599Z,98430.20
2019-03-31T17:07:44.271Z,98425.84
2019-03-31T17:10:14.487Z,98429.20
2019-03-31T17:12:44.704Z,98431.01
2019-03-31T17:15:15.382Z,98432.59
2019-03-31T17:17:45.675Z,98425.58
2019-03-31T17:20:16.730Z,98428.75
2019-03-31T17:22:47.418Z,98431.94
2019-03-31T17:25:17.655Z,98427.33
2019-03-31T17:27:48.776Z,98425.63
2019-03-31T17:30:19.150Z,98427.02
2019-03-31T17:32:49.457Z,98428.56
2019-03-31T17:35:20.671Z,98430.36
2019-03-31T17:37:51.855Z,98430.44
2019-03-31T17:40:22.512Z,98428.48
2019-03-31T17:42:52.898Z,98431.92
2019-03-31T17:45:23.174Z,98424.27
2019-03-31T17:47:54.004Z,98433.78
2019-03-31T17:50:24.570Z,98427.02
2019-03-31T17:52:54.807Z,98434.14
2019-03-31T17:55:25.065Z,98426.06
2019-03-31T17:57:55.451Z,98430.15
2019-03-31T18:00:26.249Z,98433.22
2019-03-31T18:02:56.981Z,98435.11
2019-03-31T18:05:28.051Z,98439.51
2019-03-31T18:07:58.990Z,98431.52
2019-03-31T18:10:29.852Z,98435.62
2019-03-31T18:13:00.432Z,98434.97
2019-03-31T18:15:30.722Z,98433.13
2019-03-31T18:18:00.969Z,98434.79
2019-03-31T18:20:31.551Z,98438.81
2019-03-31T18:23:02.186Z,98450.58
2019-03-31T18:25:33.910Z,98450.58
2019-03-31T18:28:04.444Z,98444.77
2019-03-31T18:30:35.269Z,98449.28
2019-03-31T18:33:05.545Z,98450.22
2019-03-31T18:35:35.855Z,98452.88
2019-03-31T18:38:06.207Z,98452.48
2019-03-31T18:40:37.581Z,98458.96
2019-03-31T18:43:07.810Z,98458.83
2019-03-31T18:45:38.063Z,98462.31
2019-03-31T18:48:08.766Z,98464.78
2019-03-31T18:50:39.078Z,98475.09
2019-03-31T18:53:10.844Z,98478.33
2019-03-31T18:56:09.395Z,98482.43
2019-03-31T18:58:54.776Z,98486.69
2019-03-31T19:01:43.235Z,98485.73
2019-03-31T19:04:26.934Z,98489.05
2019-03-31T19:07:22.233Z,98492.41
2019-03-31T19:10:06.505Z,98496.61
2019-03-31T19:12:53.029Z,98499.45
2019-03-31T19:15:45.209Z,98500.12
2019-03-31T19:18:34.462Z,98507.00
2019-03-31T19:21:16.919Z,98502.98
2019-03-31T19:24:06.435Z,98504.06
2019-03-31T19:27:03.928Z,98505.27
2019-03-31T19:29:56.132Z,98504.45
2019-03-31T19:32:41.835Z,98510.13
2019-03-31T19:35:40.767Z,98515.17
2019-03-31T19:38:41.919Z,98516.25
2019-03-31T19:41:30.347Z,98518.30
2019-03-31T19:44:14.111Z,98520.27
2019-03-31T19:46:59.962Z,98522.45
2019-03-31T19:49:39.554Z,98520.52
2019-03-31T19:52:23.042Z,98518.73
2019-03-31T19:55:04.814Z,98521.25
2019-03-31T19:57:54.091Z,98517.69
2019-03-31T20:00:43.300Z,98523.16
2019-03-31T20:03:38.611Z,98520.54
2019-03-31T20:06:25.935Z,98527.22
2019-03-31T20:09:14.962Z,98527.39
2019-03-31T20:12:07.303Z,98523.41
2019-03-31T20:14:45.623Z,98529.25
2019-03-31T20:17:31.569Z,98529.71
2019-03-31T20:20:26.962Z,98524.38
2019-03-31T20:23:19.986Z,98526.59
2019-03-31T20:26:12.303Z,98530.55
2019-03-31T20:28:49.975Z,98535.77
2019-03-31T20:31:51.515Z,98541.41
2019-03-31T20:34:53.454Z,98533.84
2019-03-31T20:37:39.403Z,98539.72
2019-03-31T20:40:34.983Z,98539.30
2019-03-31T20:43:31.356Z,98543.56
2019-03-31T20:46:04.322Z,98541.60
2019-03-31T20:48:34.023Z,98543.33
2019-03-31T20:51:04.311Z,98537.15
2019-03-31T20:53:36.479Z,98538.66
2019-03-31T20:56:07.350Z,98529.81
2019-03-31T20:58:38.442Z,98538.48
2019-03-31T21:01:10.239Z,98538.59
2019-03-31T21:03:40.815Z,98540.48
2019-03-31T21:06:11.233Z,98540.48
2019-03-31T21:08:41.475Z,98539.52
2019-03-31T21:11:12.575Z,98547.63
2019-03-31T21:13:43.480Z,98542.95
2019-03-31T21:16:14.551Z,98550.98
2019-03-31T21:18:44.843Z,98552.98
2019-03-31T21:21:15.402Z,98554.00
2019-03-31T21:23:46.466Z,98558.95
2019-03-31T21:26:16.663Z,98560.84
2019-03-31T21:28:46.952Z,98557.45
2019-03-31T21:31:17.256Z,98555.47
2019-03-31T21:33:47.508Z,98555.95
2019-03-31T21:36:18.550Z,98560.00
2019-03-31T21:38:49.601Z,98555.60
2019-03-31T21:41:20.262Z,98553.51
2019-03-31T21:43:50.983Z,98551.84
2019-03-31T21:46:21.213Z,98554.39
2019-03-31T21:48:51.425Z,98546.63
2019-03-31T21:51:21.673Z,98558.27
2019-03-31T21:53:51.947Z,98558.82
2019-03-31T21:56:22.225Z,98560.70
2019-03-31T21:58:52.479Z,98559.02
2019-03-31T22:01:24.994Z,98569.22
2019-03-31T22:03:55.271Z,98566.77
2019-03-31T22:06:25.795Z,98567.16
2019-03-31T22:08:56.025Z,98568.75
2019-03-31T22:11:28.398Z,98564.74
2019-03-31T22:14:00.169Z,98569.08
2019-03-31T22:16:30.318Z,98563.05
2019-03-31T22:19:01.034Z,98572.34
2019-03-31T22:21:32.216Z,98570.90
2019-03-31T22:24:02.498Z,98562.44
2019-03-31T22:26:32.761Z,98568.64
2019-03-31T22:29:03.049Z,98577.75
2019-03-31T22:31:33.689Z,98572.41
2019-03-31T22:34:04.243Z,98571.16
2019-03-31T22:36:34.882Z,98565.47
2019-03-31T22:39:06.676Z,98569.25
2019-03-31T22:41:36.899Z,98569.11
2019-03-31T22:44:07.078Z,98576.29
2019-03-31T22:46:37.888Z,98568.87
2019-03-31T22:49:08.625Z,98572.04
2019-03-31T22:51:39.458Z,98567.30
2019-03-31T22:54:09.722Z,98574.93
2019-03-31T22:56:39.983Z,98574.19
2019-03-31T22:59:11.256Z,98579.87
2019-03-31T23:01:41.989Z,98576.06
2019-03-31T23:04:12.231Z,98570.70
2019-03-31T23:06:42.425Z,98570.44
2019-03-31T23:09:13.802Z,98573.55
2019-03-31T23:11:44.094Z,98571.84
2019-03-31T23:14:14.362Z,98574.70
2019-03-31T23:16:45.398Z,98572.02
2019-03-31T23:19:15.897Z,98572.23
2019-03-31T23:21:46.122Z,98572.41
2019-03-31T23:24:16.377Z,98569.95
2019-03-31T23:26:46.695Z,98567.52
2019-03-31T23:29:16.923Z,98568.53
2019-03-31T23:31:47.239Z,98572.20
2019-03-31T23:34:17.462Z,98568.11
2019-03-31T23:36:47.743Z,98575.45
2019-03-31T23:39:18.141Z,98571.45
2019-03-31T23:41:49.010Z,98574.09
2019-03-31T23:44:19.202Z,98565.91
2019-03-31T23:46:49.453Z,98576.14
2019-03-31T23:49:20.238Z,98569.55
2019-03-31T23:51:51.529Z,98577.23
2019-03-31T23:54:21.875Z,98580.19
2019-03-31T23:56:52.179Z,98576.83
2019-03-31T23:59:22.751Z,98572.53
